sensor_id;sensor_type;location;lat;lon;timestamp;P1;durP1;ratioP1;P2;durP2;ratioP2
41466;SDS011;27205;53.690;19.948;2023-05-07T00:01:07;4.00;;;3.70;;
41466;SDS011;27205;53.690;19.948;2023-05-07T00:06:11;4.00;;;3.70;;
41466;SDS011;27205;53.690;19.948;2023-05-07T00:11:15;4.40;;;3.90;;
41466;SDS011;27205;53.690;19.948;2023-05-07T00:16:19;4.60;;;4.20;;
41466;SDS011;27205;53.690;19.948;2023-05-07T00:21:22;4.00;;;3.70;;
41466;SDS011;27205;53.690;19.948;2023-05-07T00:26:29;4.50;;;4.10;;
41466;SDS011;27205;53.690;19.948;2023-05-07T00:31:33;4.90;;;4.50;;
41466;SDS011;27205;53.690;19.948;2023-05-07T00:36:36;7.50;;;6.90;;
41466;SDS011;27205;53.690;19.948;2023-05-07T00:41:40;6.90;;;6.30;;
41466;SDS011;27205;53.690;19.948;2023-05-07T00:46:43;4.20;;;3.90;;
41466;SDS011;27205;53.690;19.948;2023-05-07T00:51:52;6.50;;;3.60;;
41466;SDS011;27205;53.690;19.948;2023-05-07T00:56:56;3.50;;;3.30;;
41466;SDS011;27205;53.690;19.948;2023-05-07T01:01:59;3.50;;;3.20;;
41466;SDS011;27205;53.690;19.948;2023-05-07T01:07:03;3.40;;;3.00;;
41466;SDS011;27205;53.690;19.948;2023-05-07T01:12:08;2.90;;;2.70;;
41466;SDS011;27205;53.690;19.948;2023-05-07T01:17:12;3.80;;;3.20;;
41466;SDS011;27205;53.690;19.948;2023-05-07T01:22:16;3.90;;;3.60;;
41466;SDS011;27205;53.690;19.948;2023-05-07T01:27:24;3.30;;;3.10;;
41466;SDS011;27205;53.690;19.948;2023-05-07T01:32:29;3.20;;;2.90;;
41466;SDS011;27205;53.690;19.948;2023-05-07T01:37:44;3.40;;;2.90;;
41466;SDS011;27205;53.690;19.948;2023-05-07T01:42:49;3.60;;;3.00;;
41466;SDS011;27205;53.690;19.948;2023-05-07T01:47:53;3.90;;;3.10;;
41466;SDS011;27205;53.690;19.948;2023-05-07T01:52:58;3.70;;;3.40;;
41466;SDS011;27205;53.690;19.948;2023-05-07T01:58:02;3.10;;;2.90;;
41466;SDS011;27205;53.690;19.948;2023-05-07T02:03:06;3.10;;;2.80;;
41466;SDS011;27205;53.690;19.948;2023-05-07T02:08:10;3.30;;;2.70;;
41466;SDS011;27205;53.690;19.948;2023-05-07T02:13:13;3.30;;;2.70;;
41466;SDS011;27205;53.690;19.948;2023-05-07T02:18:17;3.50;;;3.00;;
41466;SDS011;27205;53.690;19.948;2023-05-07T02:23:20;4.00;;;3.70;;
41466;SDS011;27205;53.690;19.948;2023-05-07T02:28:24;3.70;;;2.90;;
41466;SDS011;27205;53.690;19.948;2023-05-07T02:33:27;4.20;;;3.80;;
41466;SDS011;27205;53.690;19.948;2023-05-07T02:38:31;3.40;;;2.90;;
41466;SDS011;27205;53.690;19.948;2023-05-07T02:43:34;3.60;;;3.00;;
41466;SDS011;27205;53.690;19.948;2023-05-07T02:48:39;2.90;;;2.70;;
41466;SDS011;27205;53.690;19.948;2023-05-07T02:53:42;3.20;;;3.00;;
41466;SDS011;27205;53.690;19.948;2023-05-07T02:58:46;3.20;;;2.80;;
41466;SDS011;27205;53.690;19.948;2023-05-07T03:03:49;6.30;;;3.70;;
41466;SDS011;27205;53.690;19.948;2023-05-07T03:08:53;2.90;;;2.70;;
41466;SDS011;27205;53.690;19.948;2023-05-07T03:13:56;3.40;;;3.20;;
41466;SDS011;27205;53.690;19.948;2023-05-07T03:19:00;3.90;;;3.60;;
41466;SDS011;27205;53.690;19.948;2023-05-07T03:24:04;3.30;;;3.10;;
41466;SDS011;27205;53.690;19.948;2023-05-07T03:29:08;3.50;;;3.30;;
41466;SDS011;27205;53.690;19.948;2023-05-07T03:34:11;3.20;;;3.00;;
41466;SDS011;27205;53.690;19.948;2023-05-07T03:39:15;2.60;;;2.40;;
41466;SDS011;27205;53.690;19.948;2023-05-07T03:44:18;3.20;;;3.00;;
41466;SDS011;27205;53.690;19.948;2023-05-07T03:49:22;3.60;;;3.30;;
41466;SDS011;27205;53.690;19.948;2023-05-07T03:54:25;2.70;;;2.50;;
41466;SDS011;27205;53.690;19.948;2023-05-07T03:59:30;2.60;;;2.40;;
41466;SDS011;27205;53.690;19.948;2023-05-07T04:04:33;3.50;;;2.90;;
41466;SDS011;27205;53.690;19.948;2023-05-07T04:09:37;3.50;;;3.10;;
41466;SDS011;27205;53.690;19.948;2023-05-07T04:14:40;3.40;;;2.50;;
41466;SDS011;27205;53.690;19.948;2023-05-07T04:19:44;2.80;;;2.50;;
41466;SDS011;27205;53.690;19.948;2023-05-07T04:29:51;3.70;;;2.90;;
41466;SDS011;27205;53.690;19.948;2023-05-07T04:34:58;2.50;;;2.30;;
41466;SDS011;27205;53.690;19.948;2023-05-07T04:40:02;3.70;;;3.00;;
41466;SDS011;27205;53.690;19.948;2023-05-07T04:45:06;3.20;;;2.90;;
41466;SDS011;27205;53.690;19.948;2023-05-07T04:50:11;3.40;;;2.90;;
41466;SDS011;27205;53.690;19.948;2023-05-07T04:55:15;2.50;;;2.40;;
41466;SDS011;27205;53.690;19.948;2023-05-07T05:00:18;2.60;;;2.40;;
41466;SDS011;27205;53.690;19.948;2023-05-07T05:05:22;3.00;;;2.70;;
41466;SDS011;27205;53.690;19.948;2023-05-07T05:10:26;2.00;;;1.90;;
41466;SDS011;27205;53.690;19.948;2023-05-07T05:15:29;2.60;;;2.40;;
41466;SDS011;27205;53.690;19.948;2023-05-07T05:20:35;5.30;;;3.00;;
41466;SDS011;27205;53.690;19.948;2023-05-07T05:25:39;2.90;;;2.40;;
41466;SDS011;27205;53.690;19.948;2023-05-07T05:30:43;3.00;;;2.40;;
41466;SDS011;27205;53.690;19.948;2023-05-07T05:35:46;2.80;;;2.50;;
41466;SDS011;27205;53.690;19.948;2023-05-07T05:40:50;3.00;;;2.70;;
41466;SDS011;27205;53.690;19.948;2023-05-07T05:45:55;2.50;;;2.30;;
41466;SDS011;27205;53.690;19.948;2023-05-07T05:50:59;2.80;;;2.30;;
41466;SDS011;27205;53.690;19.948;2023-05-07T05:56:03;2.30;;;2.10;;
41466;SDS011;27205;53.690;19.948;2023-05-07T06:01:07;1.80;;;1.60;;
41466;SDS011;27205;53.690;19.948;2023-05-07T06:06:11;1.50;;;1.40;;
41466;SDS011;27205;53.690;19.948;2023-05-07T06:11:14;2.50;;;1.70;;
41466;SDS011;27205;53.690;19.948;2023-05-07T06:16:19;2.40;;;2.00;;
41466;SDS011;27205;53.690;19.948;2023-05-07T06:21:23;1.50;;;1.40;;
41466;SDS011;27205;53.690;19.948;2023-05-07T06:26:26;1.60;;;1.50;;
41466;SDS011;27205;53.690;19.948;2023-05-07T06:31:30;2.20;;;1.60;;
41466;SDS011;27205;53.690;19.948;2023-05-07T06:36:35;1.60;;;1.20;;
41466;SDS011;27205;53.690;19.948;2023-05-07T06:41:39;1.80;;;1.70;;
41466;SDS011;27205;53.690;19.948;2023-05-07T06:51:48;3.20;;;1.80;;
41466;SDS011;27205;53.690;19.948;2023-05-07T06:56:52;2.60;;;1.80;;
41466;SDS011;27205;53.690;19.948;2023-05-07T07:01:57;2.80;;;1.70;;
41466;SDS011;27205;53.690;19.948;2023-05-07T07:07:01;1.90;;;1.70;;
41466;SDS011;27205;53.690;19.948;2023-05-07T07:12:04;2.40;;;1.70;;
41466;SDS011;27205;53.690;19.948;2023-05-07T07:17:08;2.10;;;1.70;;
41466;SDS011;27205;53.690;19.948;2023-05-07T07:22:12;2.00;;;1.50;;
41466;SDS011;27205;53.690;19.948;2023-05-07T07:27:15;1.80;;;1.40;;
41466;SDS011;27205;53.690;19.948;2023-05-07T07:32:19;2.40;;;1.40;;
41466;SDS011;27205;53.690;19.948;2023-05-07T07:37:22;1.20;;;1.10;;
41466;SDS011;27205;53.690;19.948;2023-05-07T07:42:28;2.20;;;1.30;;
41466;SDS011;27205;53.690;19.948;2023-05-07T07:52:35;3.30;;;1.60;;
41466;SDS011;27205;53.690;19.948;2023-05-07T07:57:40;1.50;;;1.30;;
41466;SDS011;27205;53.690;19.948;2023-05-07T08:02:43;2.20;;;1.70;;
41466;SDS011;27205;53.690;19.948;2023-05-07T08:07:47;2.00;;;1.40;;
41466;SDS011;27205;53.690;19.948;2023-05-07T08:12:55;3.10;;;1.30;;
41466;SDS011;27205;53.690;19.948;2023-05-07T08:17:58;6.90;;;1.80;;
41466;SDS011;27205;53.690;19.948;2023-05-07T08:27:58;2.40;;;1.20;;
41466;SDS011;27205;53.690;19.948;2023-05-07T08:33:01;1.10;;;1.00;;
41466;SDS011;27205;53.690;19.948;2023-05-07T08:38:04;2.70;;;1.30;;
41466;SDS011;27205;53.690;19.948;2023-05-07T08:43:06;1.60;;;1.20;;
41466;SDS011;27205;53.690;19.948;2023-05-07T08:48:10;1.00;;;0.90;;
41466;SDS011;27205;53.690;19.948;2023-05-07T08:53:17;1.70;;;1.50;;
41466;SDS011;27205;53.690;19.948;2023-05-07T08:58:19;1.00;;;1.00;;
41466;SDS011;27205;53.690;19.948;2023-05-07T09:03:22;1.40;;;1.30;;
41466;SDS011;27205;53.690;19.948;2023-05-07T09:08:27;1.30;;;1.20;;
41466;SDS011;27205;53.690;19.948;2023-05-07T09:13:32;1.80;;;1.60;;
41466;SDS011;27205;53.690;19.948;2023-05-07T09:18:34;2.00;;;1.40;;
41466;SDS011;27205;53.690;19.948;2023-05-07T09:23:36;1.50;;;1.30;;
41466;SDS011;27205;53.690;19.948;2023-05-07T09:28:39;2.00;;;1.30;;
41466;SDS011;27205;53.690;19.948;2023-05-07T09:33:46;1.50;;;1.30;;
41466;SDS011;27205;53.690;19.948;2023-05-07T09:38:48;2.10;;;1.30;;
41466;SDS011;27205;53.690;19.948;2023-05-07T09:43:54;3.00;;;1.20;;
41466;SDS011;27205;53.690;19.948;2023-05-07T09:48:59;2.90;;;1.40;;
41466;SDS011;27205;53.690;19.948;2023-05-07T09:54:04;3.20;;;1.60;;
41466;SDS011;27205;53.690;19.948;2023-05-07T09:59:06;8.20;;;2.30;;
41466;SDS011;27205;53.690;19.948;2023-05-07T10:04:10;2.90;;;1.30;;
41466;SDS011;27205;53.690;19.948;2023-05-07T10:09:12;3.40;;;1.30;;
41466;SDS011;27205;53.690;19.948;2023-05-07T10:14:17;1.50;;;1.10;;
41466;SDS011;27205;53.690;19.948;2023-05-07T10:19:19;1.70;;;1.20;;
41466;SDS011;27205;53.690;19.948;2023-05-07T10:24:26;1.40;;;1.30;;
41466;SDS011;27205;53.690;19.948;2023-05-07T10:29:33;3.40;;;1.90;;
41466;SDS011;27205;53.690;19.948;2023-05-07T10:34:56;1.60;;;1.50;;
41466;SDS011;27205;53.690;19.948;2023-05-07T10:40:02;4.50;;;4.20;;
41466;SDS011;27205;53.690;19.948;2023-05-07T10:45:14;2.00;;;1.80;;
41466;SDS011;27205;53.690;19.948;2023-05-07T10:55:19;1.70;;;1.60;;
41466;SDS011;27205;53.690;19.948;2023-05-07T11:05:40;1.50;;;1.10;;
41466;SDS011;27205;53.690;19.948;2023-05-07T11:15:53;1.30;;;1.10;;
41466;SDS011;27205;53.690;19.948;2023-05-07T11:20:57;1.10;;;1.10;;
41466;SDS011;27205;53.690;19.948;2023-05-07T11:26:04;1.70;;;1.40;;
41466;SDS011;27205;53.690;19.948;2023-05-07T11:31:07;2.90;;;1.10;;
41466;SDS011;27205;53.690;19.948;2023-05-07T11:36:11;3.70;;;1.50;;
41466;SDS011;27205;53.690;19.948;2023-05-07T11:41:15;2.60;;;1.80;;
41466;SDS011;27205;53.690;19.948;2023-05-07T11:46:19;1.40;;;1.30;;
41466;SDS011;27205;53.690;19.948;2023-05-07T11:51:23;1.40;;;1.20;;
41466;SDS011;27205;53.690;19.948;2023-05-07T11:56:27;1.30;;;1.10;;
41466;SDS011;27205;53.690;19.948;2023-05-07T12:01:29;1.60;;;1.50;;
41466;SDS011;27205;53.690;19.948;2023-05-07T12:06:35;3.00;;;1.40;;
41466;SDS011;27205;53.690;19.948;2023-05-07T12:11:39;1.50;;;1.40;;
41466;SDS011;27205;53.690;19.948;2023-05-07T12:16:41;1.10;;;1.10;;
41466;SDS011;27205;53.690;19.948;2023-05-07T12:21:44;1.20;;;1.10;;
41466;SDS011;27205;53.690;19.948;2023-05-07T12:26:46;3.80;;;1.30;;
41466;SDS011;27205;53.690;19.948;2023-05-07T12:31:49;1.50;;;1.10;;
41466;SDS011;27205;53.690;19.948;2023-05-07T12:36:52;2.40;;;1.30;;
41466;SDS011;27205;53.690;19.948;2023-05-07T12:41:55;1.10;;;1.10;;
41466;SDS011;27205;53.690;19.948;2023-05-07T12:47:01;1.80;;;0.80;;
41466;SDS011;27205;53.690;19.948;2023-05-07T12:52:04;3.10;;;1.20;;
41466;SDS011;27205;53.690;19.948;2023-05-07T12:57:08;2.30;;;1.60;;
41466;SDS011;27205;53.690;19.948;2023-05-07T13:02:11;2.10;;;1.00;;
41466;SDS011;27205;53.690;19.948;2023-05-07T13:07:14;1.40;;;0.90;;
41466;SDS011;27205;53.690;19.948;2023-05-07T13:12:16;1.40;;;1.20;;
41466;SDS011;27205;53.690;19.948;2023-05-07T13:17:19;2.10;;;1.10;;
41466;SDS011;27205;53.690;19.948;2023-05-07T13:22:21;1.00;;;0.90;;
41466;SDS011;27205;53.690;19.948;2023-05-07T13:27:23;1.40;;;1.20;;
41466;SDS011;27205;53.690;19.948;2023-05-07T13:32:26;3.80;;;1.00;;
41466;SDS011;27205;53.690;19.948;2023-05-07T13:37:28;1.90;;;1.20;;
41466;SDS011;27205;53.690;19.948;2023-05-07T13:42:30;2.60;;;1.20;;
41466;SDS011;27205;53.690;19.948;2023-05-07T13:47:32;2.40;;;1.10;;
41466;SDS011;27205;53.690;19.948;2023-05-07T13:52:35;3.80;;;1.40;;
41466;SDS011;27205;53.690;19.948;2023-05-07T13:57:37;8.40;;;2.50;;
41466;SDS011;27205;53.690;19.948;2023-05-07T14:02:39;1.80;;;1.50;;
41466;SDS011;27205;53.690;19.948;2023-05-07T14:07:43;1.30;;;0.90;;
41466;SDS011;27205;53.690;19.948;2023-05-07T14:12:46;7.70;;;2.50;;
41466;SDS011;27205;53.690;19.948;2023-05-07T14:17:49;1.20;;;1.10;;
41466;SDS011;27205;53.690;19.948;2023-05-07T14:22:51;6.90;;;2.70;;
41466;SDS011;27205;53.690;19.948;2023-05-07T14:27:53;0.80;;;0.80;;
41466;SDS011;27205;53.690;19.948;2023-05-07T14:32:55;1.30;;;1.30;;
41466;SDS011;27205;53.690;19.948;2023-05-07T14:37:57;61.00;;;14.50;;
41466;SDS011;27205;53.690;19.948;2023-05-07T14:42:59;3.40;;;3.30;;
41466;SDS011;27205;53.690;19.948;2023-05-07T14:48:02;5.70;;;5.40;;
41466;SDS011;27205;53.690;19.948;2023-05-07T14:53:04;8.10;;;7.70;;
41466;SDS011;27205;53.690;19.948;2023-05-07T14:58:07;11.30;;;10.80;;
41466;SDS011;27205;53.690;19.948;2023-05-07T15:03:09;15.00;;;14.40;;
41466;SDS011;27205;53.690;19.948;2023-05-07T15:08:12;18.90;;;18.10;;
41466;SDS011;27205;53.690;19.948;2023-05-07T15:13:14;22.00;;;20.60;;
41466;SDS011;27205;53.690;19.948;2023-05-07T15:18:17;18.70;;;17.90;;
41466;SDS011;27205;53.690;19.948;2023-05-07T15:23:24;17.80;;;16.80;;
41466;SDS011;27205;53.690;19.948;2023-05-07T15:28:26;17.40;;;16.60;;
41466;SDS011;27205;53.690;19.948;2023-05-07T15:33:29;16.20;;;15.60;;
41466;SDS011;27205;53.690;19.948;2023-05-07T15:38:32;13.40;;;12.80;;
41466;SDS011;27205;53.690;19.948;2023-05-07T15:43:36;11.30;;;10.70;;
41466;SDS011;27205;53.690;19.948;2023-05-07T15:48:47;9.30;;;8.80;;
41466;SDS011;27205;53.690;19.948;2023-05-07T15:53:49;7.60;;;7.30;;
41466;SDS011;27205;53.690;19.948;2023-05-07T15:58:53;6.30;;;6.10;;
41466;SDS011;27205;53.690;19.948;2023-05-07T16:03:55;5.50;;;5.10;;
41466;SDS011;27205;53.690;19.948;2023-05-07T16:08:57;4.10;;;3.90;;
41466;SDS011;27205;53.690;19.948;2023-05-07T16:13:59;3.10;;;2.90;;
41466;SDS011;27205;53.690;19.948;2023-05-07T16:19:02;2.40;;;2.30;;
41466;SDS011;27205;53.690;19.948;2023-05-07T16:24:04;2.00;;;1.90;;
41466;SDS011;27205;53.690;19.948;2023-05-07T16:29:06;1.80;;;1.70;;
41466;SDS011;27205;53.690;19.948;2023-05-07T16:34:08;1.40;;;1.40;;
41466;SDS011;27205;53.690;19.948;2023-05-07T16:39:11;1.40;;;1.30;;
41466;SDS011;27205;53.690;19.948;2023-05-07T16:44:13;1.30;;;1.20;;
41466;SDS011;27205;53.690;19.948;2023-05-07T16:49:15;3.40;;;1.70;;
41466;SDS011;27205;53.690;19.948;2023-05-07T16:54:17;5.80;;;1.30;;
41466;SDS011;27205;53.690;19.948;2023-05-07T16:59:19;3.00;;;1.50;;
41466;SDS011;27205;53.690;19.948;2023-05-07T17:04:21;2.30;;;1.50;;
41466;SDS011;27205;53.690;19.948;2023-05-07T17:09:24;3.10;;;1.60;;
41466;SDS011;27205;53.690;19.948;2023-05-07T17:14:26;2.60;;;1.20;;
41466;SDS011;27205;53.690;19.948;2023-05-07T17:19:28;1.90;;;1.30;;
41466;SDS011;27205;53.690;19.948;2023-05-07T17:24:31;1.30;;;1.00;;
41466;SDS011;27205;53.690;19.948;2023-05-07T17:29:33;4.50;;;2.00;;
41466;SDS011;27205;53.690;19.948;2023-05-07T17:34:35;2.60;;;1.20;;
41466;SDS011;27205;53.690;19.948;2023-05-07T17:39:38;3.40;;;1.70;;
41466;SDS011;27205;53.690;19.948;2023-05-07T17:44:40;2.10;;;1.80;;
41466;SDS011;27205;53.690;19.948;2023-05-07T17:49:42;2.00;;;1.80;;
41466;SDS011;27205;53.690;19.948;2023-05-07T17:54:44;5.70;;;2.80;;
41466;SDS011;27205;53.690;19.948;2023-05-07T17:59:47;3.10;;;2.20;;
41466;SDS011;27205;53.690;19.948;2023-05-07T18:04:49;3.70;;;2.40;;
41466;SDS011;27205;53.690;19.948;2023-05-07T18:09:52;3.10;;;2.40;;
41466;SDS011;27205;53.690;19.948;2023-05-07T18:14:54;6.20;;;2.80;;
41466;SDS011;27205;53.690;19.948;2023-05-07T18:19:57;3.20;;;2.00;;
41466;SDS011;27205;53.690;19.948;2023-05-07T18:24:59;2.60;;;2.40;;
41466;SDS011;27205;53.690;19.948;2023-05-07T18:30:02;7.70;;;3.90;;
41466;SDS011;27205;53.690;19.948;2023-05-07T18:35:04;6.10;;;5.50;;
41466;SDS011;27205;53.690;19.948;2023-05-07T18:40:10;6.40;;;5.80;;
41466;SDS011;27205;53.690;19.948;2023-05-07T18:50:17;14.80;;;7.60;;
41466;SDS011;27205;53.690;19.948;2023-05-07T18:55:21;8.80;;;5.80;;
41466;SDS011;27205;53.690;19.948;2023-05-07T19:00:24;7.60;;;5.20;;
41466;SDS011;27205;53.690;19.948;2023-05-07T19:05:27;5.50;;;5.10;;
41466;SDS011;27205;53.690;19.948;2023-05-07T19:10:30;6.20;;;4.70;;
41466;SDS011;27205;53.690;19.948;2023-05-07T19:15:32;8.10;;;4.40;;
41466;SDS011;27205;53.690;19.948;2023-05-07T19:20:39;6.30;;;3.50;;
41466;SDS011;27205;53.690;19.948;2023-05-07T19:25:42;7.20;;;4.20;;
41466;SDS011;27205;53.690;19.948;2023-05-07T19:30:44;3.50;;;3.20;;
41466;SDS011;27205;53.690;19.948;2023-05-07T19:35:47;6.90;;;4.70;;
41466;SDS011;27205;53.690;19.948;2023-05-07T19:40:51;5.90;;;4.10;;
41466;SDS011;27205;53.690;19.948;2023-05-07T19:45:58;7.00;;;4.60;;
41466;SDS011;27205;53.690;19.948;2023-05-07T19:51:00;5.00;;;4.50;;
41466;SDS011;27205;53.690;19.948;2023-05-07T20:01:38;49.80;;;14.10;;
41466;SDS011;27205;53.690;19.948;2023-05-07T20:06:41;21.80;;;10.30;;
41466;SDS011;27205;53.690;19.948;2023-05-07T20:11:43;14.40;;;9.20;;
41466;SDS011;27205;53.690;19.948;2023-05-07T20:16:45;10.40;;;7.80;;
41466;SDS011;27205;53.690;19.948;2023-05-07T20:21:48;8.50;;;7.70;;
41466;SDS011;27205;53.690;19.948;2023-05-07T20:26:50;7.60;;;6.80;;
41466;SDS011;27205;53.690;19.948;2023-05-07T20:31:52;8.50;;;6.40;;
41466;SDS011;27205;53.690;19.948;2023-05-07T20:36:54;6.70;;;6.20;;
41466;SDS011;27205;53.690;19.948;2023-05-07T20:41:57;5.20;;;4.70;;
41466;SDS011;27205;53.690;19.948;2023-05-07T20:47:00;12.10;;;11.00;;
41466;SDS011;27205;53.690;19.948;2023-05-07T20:52:03;12.10;;;11.00;;
41466;SDS011;27205;53.690;19.948;2023-05-07T20:57:06;9.30;;;8.60;;
41466;SDS011;27205;53.690;19.948;2023-05-07T21:02:08;12.80;;;11.60;;
41466;SDS011;27205;53.690;19.948;2023-05-07T21:07:10;11.20;;;10.20;;
41466;SDS011;27205;53.690;19.948;2023-05-07T21:12:13;12.80;;;11.50;;
41466;SDS011;27205;53.690;19.948;2023-05-07T21:17:15;10.80;;;9.70;;
41466;SDS011;27205;53.690;19.948;2023-05-07T21:22:17;9.80;;;9.00;;
41466;SDS011;27205;53.690;19.948;2023-05-07T21:27:19;9.70;;;8.90;;
41466;SDS011;27205;53.690;19.948;2023-05-07T21:32:22;10.80;;;9.00;;
41466;SDS011;27205;53.690;19.948;2023-05-07T21:37:24;11.00;;;10.10;;
41466;SDS011;27205;53.690;19.948;2023-05-07T21:42:26;15.40;;;10.10;;
41466;SDS011;27205;53.690;19.948;2023-05-07T21:47:28;10.90;;;9.30;;
41466;SDS011;27205;53.690;19.948;2023-05-07T21:52:31;8.20;;;7.60;;
41466;SDS011;27205;53.690;19.948;2023-05-07T21:57:33;8.30;;;7.50;;
41466;SDS011;27205;53.690;19.948;2023-05-07T22:02:36;5.90;;;5.10;;
41466;SDS011;27205;53.690;19.948;2023-05-07T22:07:39;7.00;;;6.40;;
41466;SDS011;27205;53.690;19.948;2023-05-07T22:12:41;7.20;;;6.60;;
41466;SDS011;27205;53.690;19.948;2023-05-07T22:17:44;8.70;;;8.00;;
41466;SDS011;27205;53.690;19.948;2023-05-07T22:27:52;35.70;;;32.70;;
41466;SDS011;27205;53.690;19.948;2023-05-07T22:32:55;42.80;;;39.40;;
41466;SDS011;27205;53.690;19.948;2023-05-07T22:37:57;21.90;;;20.00;;
41466;SDS011;27205;53.690;19.948;2023-05-07T22:42:59;11.90;;;11.00;;
41466;SDS011;27205;53.690;19.948;2023-05-07T22:48:02;5.90;;;5.50;;
41466;SDS011;27205;53.690;19.948;2023-05-07T22:53:05;5.90;;;5.50;;
41466;SDS011;27205;53.690;19.948;2023-05-07T22:58:07;6.70;;;6.30;;
41466;SDS011;27205;53.690;19.948;2023-05-07T23:03:10;9.20;;;8.30;;
41466;SDS011;27205;53.690;19.948;2023-05-07T23:08:12;9.50;;;8.70;;
41466;SDS011;27205;53.690;19.948;2023-05-07T23:13:14;10.60;;;9.70;;
41466;SDS011;27205;53.690;19.948;2023-05-07T23:18:18;10.80;;;9.90;;
41466;SDS011;27205;53.690;19.948;2023-05-07T23:23:20;10.30;;;9.50;;
41466;SDS011;27205;53.690;19.948;2023-05-07T23:28:22;9.90;;;9.00;;
41466;SDS011;27205;53.690;19.948;2023-05-07T23:33:25;11.00;;;10.00;;
41466;SDS011;27205;53.690;19.948;2023-05-07T23:38:27;10.30;;;9.50;;
41466;SDS011;27205;53.690;19.948;2023-05-07T23:43:29;8.90;;;8.30;;
41466;SDS011;27205;53.690;19.948;2023-05-07T23:48:31;8.90;;;8.10;;
41466;SDS011;27205;53.690;19.948;2023-05-07T23:53:33;7.40;;;6.80;;
41466;SDS011;27205;53.690;19.948;2023-05-07T23:58:36;7.60;;;7.00;;
